Terminal Aerodrome Forecast
Issued by NWS

Home | Current Version | Previous Version | Text Only | Print | Product List | Glossary On
Versions: 1 2 3 4 5 6 7 8 9 10 11 12 13 14 15 16 17 18 19 20
000
FTAK31 PAJN 230624 AAA
TAFAPG
TAF AMD
PAPG 230624Z 2306/2406 00000KT P6SM -RA SCT008 SCT015 OVC025
      TEMPO 2306/2310 2SM -RA BR BKN006 BKN012 OVC020
     FM231000 00000KT 4SM -RA BR SCT004 BKN015 OVC025
      TEMPO 2310/2314 1SM -RA BR BKN004 BKN012 OVC020
     FM231400 08010KT 1SM RA BR BKN004 OVC015 WS020/16030KT
     FM240000 12010KT 4SM -RA BR FEW006 SCT010 OVC025
      AMD LTD TO CLD VIS AND WIND TIL 231500=

USA.gov is the U.S. government's official web portal to all federal, state and local government web resources and services.